sensor_id;sensor_type;location;lat;lon;timestamp;pressure;altitude;pressure_sealevel;temperature;humidity
21566;BME280;10943;48.738;9.320;2022-08-21T00:00:28;98955.84;;;17.75;71.99
21566;BME280;10943;48.738;9.320;2022-08-21T00:03:03;98947.34;;;17.90;71.26
21566;BME280;10943;48.738;9.320;2022-08-21T00:05:37;98954.06;;;18.05;70.34
21566;BME280;10943;48.738;9.320;2022-08-21T00:08:06;98952.44;;;17.83;70.67
21566;BME280;10943;48.738;9.320;2022-08-21T00:10:41;98948.50;;;17.84;70.66
21566;BME280;10943;48.738;9.320;2022-08-21T00:13:10;98954.63;;;18.02;70.15
21566;BME280;10943;48.738;9.320;2022-08-21T00:15:40;98945.34;;;18.06;69.96
21566;BME280;10943;48.738;9.320;2022-08-21T00:18:09;98946.03;;;17.72;70.29
21566;BME280;10943;48.738;9.320;2022-08-21T00:20:42;98949.09;;;17.76;70.76
21566;BME280;10943;48.738;9.320;2022-08-21T00:23:11;98944.31;;;17.81;70.71
21566;BME280;10943;48.738;9.320;2022-08-21T00:25:41;98944.09;;;17.62;70.93
21566;BME280;10943;48.738;9.320;2022-08-21T00:28:10;98938.69;;;17.81;70.11
21566;BME280;10943;48.738;9.320;2022-08-21T00:30:39;98938.59;;;18.12;68.76
21566;BME280;10943;48.738;9.320;2022-08-21T00:33:11;98936.38;;;18.04;68.44
21566;BME280;10943;48.738;9.320;2022-08-21T00:35:42;98946.63;;;18.29;67.43
21566;BME280;10943;48.738;9.320;2022-08-21T00:38:11;98938.78;;;18.21;68.16
21566;BME280;10943;48.738;9.320;2022-08-21T00:40:50;98934.63;;;17.48;70.85
21566;BME280;10943;48.738;9.320;2022-08-21T00:43:30;98946.66;;;17.48;70.31
21566;BME280;10943;48.738;9.320;2022-08-21T00:46:00;98946.59;;;17.69;70.00
21566;BME280;10943;48.738;9.320;2022-08-21T00:48:29;98941.03;;;17.59;70.25
21566;BME280;10943;48.738;9.320;2022-08-21T00:51:10;98938.19;;;17.69;69.99
21566;BME280;10943;48.738;9.320;2022-08-21T00:53:44;98941.41;;;17.21;71.37
21566;BME280;10943;48.738;9.320;2022-08-21T00:56:22;98934.31;;;17.49;70.95
21566;BME280;10943;48.738;9.320;2022-08-21T00:58:53;98939.66;;;17.46;70.38
21566;BME280;10943;48.738;9.320;2022-08-21T01:01:23;98945.25;;;17.46;70.65
21566;BME280;10943;48.738;9.320;2022-08-21T01:03:51;98939.41;;;17.42;70.47
21566;BME280;10943;48.738;9.320;2022-08-21T01:06:19;98943.34;;;17.31;71.39
21566;BME280;10943;48.738;9.320;2022-08-21T01:08:47;98938.00;;;17.45;71.04
21566;BME280;10943;48.738;9.320;2022-08-21T01:11:16;98943.91;;;17.23;71.89
21566;BME280;10943;48.738;9.320;2022-08-21T01:13:44;98925.97;;;17.29;70.91
21566;BME280;10943;48.738;9.320;2022-08-21T01:16:19;98930.75;;;17.28;70.92
21566;BME280;10943;48.738;9.320;2022-08-21T01:18:50;98944.78;;;17.23;70.30
21566;BME280;10943;48.738;9.320;2022-08-21T01:21:29;98938.88;;;17.30;70.03
21566;BME280;10943;48.738;9.320;2022-08-21T01:23:57;98933.50;;;17.44;69.84
21566;BME280;10943;48.738;9.320;2022-08-21T01:26:32;98941.66;;;17.30;70.75
21566;BME280;10943;48.738;9.320;2022-08-21T01:29:12;98938.56;;;17.31;70.67
21566;BME280;10943;48.738;9.320;2022-08-21T01:31:42;98932.34;;;17.50;69.82
21566;BME280;10943;48.738;9.320;2022-08-21T01:34:10;98935.19;;;17.45;69.12
21566;BME280;10943;48.738;9.320;2022-08-21T01:36:40;98929.44;;;17.81;67.51
21566;BME280;10943;48.738;9.320;2022-08-21T01:39:07;98932.47;;;17.14;69.56
21566;BME280;10943;48.738;9.320;2022-08-21T01:41:35;98930.81;;;16.97;70.92
21566;BME280;10943;48.738;9.320;2022-08-21T01:44:03;98924.38;;;16.97;70.83
21566;BME280;10943;48.738;9.320;2022-08-21T01:46:31;98931.91;;;17.02;71.42
21566;BME280;10943;48.738;9.320;2022-08-21T01:48:59;98932.47;;;16.98;70.58
21566;BME280;10943;48.738;9.320;2022-08-21T01:51:26;98929.69;;;16.98;71.55
21566;BME280;10943;48.738;9.320;2022-08-21T01:53:53;98929.13;;;16.96;71.03
21566;BME280;10943;48.738;9.320;2022-08-21T01:56:21;98924.38;;;16.97;71.08
21566;BME280;10943;48.738;9.320;2022-08-21T01:58:49;98926.88;;;17.09;71.16
21566;BME280;10943;48.738;9.320;2022-08-21T02:01:17;98931.88;;;17.22;69.42
21566;BME280;10943;48.738;9.320;2022-08-21T02:03:44;98922.06;;;17.30;69.65
21566;BME280;10943;48.738;9.320;2022-08-21T02:06:15;98920.66;;;17.32;69.46
21566;BME280;10943;48.738;9.320;2022-08-21T02:08:46;98926.28;;;17.22;69.45
21566;BME280;10943;48.738;9.320;2022-08-21T02:11:14;98911.16;;;17.23;69.56
21566;BME280;10943;48.738;9.320;2022-08-21T02:13:42;98908.69;;;17.01;69.95
21566;BME280;10943;48.738;9.320;2022-08-21T02:16:11;98906.94;;;17.21;69.24
21566;BME280;10943;48.738;9.320;2022-08-21T02:18:45;98914.25;;;16.75;71.03
21566;BME280;10943;48.738;9.320;2022-08-21T02:21:13;98918.72;;;17.07;69.88
21566;BME280;10943;48.738;9.320;2022-08-21T02:23:40;98918.94;;;17.37;68.48
21566;BME280;10943;48.738;9.320;2022-08-21T02:26:08;98913.44;;;16.90;69.73
21566;BME280;10943;48.738;9.320;2022-08-21T02:28:36;98920.97;;;16.69;70.98
21566;BME280;10943;48.738;9.320;2022-08-21T02:31:06;98916.25;;;16.59;71.34
21566;BME280;10943;48.738;9.320;2022-08-21T02:33:34;98916.47;;;16.42;72.11
21566;BME280;10943;48.738;9.320;2022-08-21T02:36:03;98919.50;;;16.10;72.84
21566;BME280;10943;48.738;9.320;2022-08-21T02:38:33;98914.13;;;15.82;74.56
21566;BME280;10943;48.738;9.320;2022-08-21T02:41:07;98911.56;;;15.76;75.14
21566;BME280;10943;48.738;9.320;2022-08-21T02:43:37;98906.25;;;15.79;74.71
21566;BME280;10943;48.738;9.320;2022-08-21T02:46:06;98914.53;;;16.27;72.50
21566;BME280;10943;48.738;9.320;2022-08-21T02:48:36;98916.22;;;16.33;71.80
21566;BME280;10943;48.738;9.320;2022-08-21T02:51:13;98916.44;;;16.01;72.54
21566;BME280;10943;48.738;9.320;2022-08-21T02:53:43;98923.44;;;16.04;73.27
21566;BME280;10943;48.738;9.320;2022-08-21T02:56:16;98918.59;;;15.83;73.08
21566;BME280;10943;48.738;9.320;2022-08-21T02:58:51;98918.97;;;16.08;72.23
21566;BME280;10943;48.738;9.320;2022-08-21T03:01:21;98916.44;;;16.01;72.51
21566;BME280;10943;48.738;9.320;2022-08-21T03:03:48;98915.00;;;15.93;72.79
21566;BME280;10943;48.738;9.320;2022-08-21T03:06:21;98919.78;;;16.08;72.33
21566;BME280;10943;48.738;9.320;2022-08-21T03:08:49;98916.97;;;16.03;72.05
21566;BME280;10943;48.738;9.320;2022-08-21T03:11:18;98914.44;;;15.91;72.19
21566;BME280;10943;48.738;9.320;2022-08-21T03:13:47;98912.47;;;15.97;72.90
21566;BME280;10943;48.738;9.320;2022-08-21T03:16:15;98908.81;;;15.86;72.76
21566;BME280;10943;48.738;9.320;2022-08-21T03:18:42;98914.13;;;15.82;72.71
21566;BME280;10943;48.738;9.320;2022-08-21T03:21:10;98913.75;;;15.63;73.40
21566;BME280;10943;48.738;9.320;2022-08-21T03:23:39;98915.91;;;15.46;73.91
21566;BME280;10943;48.738;9.320;2022-08-21T03:26:08;98920.47;;;15.67;73.76
21566;BME280;10943;48.738;9.320;2022-08-21T03:28:39;98912.63;;;15.64;73.26
21566;BME280;10943;48.738;9.320;2022-08-21T03:31:06;98923.66;;;15.97;72.12
21566;BME280;10943;48.738;9.320;2022-08-21T03:33:33;98920.28;;;15.84;72.09
21566;BME280;10943;48.738;9.320;2022-08-21T03:36:07;98924.56;;;16.08;71.48
21566;BME280;10943;48.738;9.320;2022-08-21T03:38:36;98918.25;;;15.75;71.46
21566;BME280;10943;48.738;9.320;2022-08-21T03:41:06;98918.31;;;15.85;72.86
21566;BME280;10943;48.738;9.320;2022-08-21T03:43:35;98918.06;;;15.97;72.25
21566;BME280;10943;48.738;9.320;2022-08-21T03:46:05;98926.91;;;15.73;72.80
21566;BME280;10943;48.738;9.320;2022-08-21T03:48:35;98931.00;;;15.50;72.96
21566;BME280;10943;48.738;9.320;2022-08-21T03:51:04;98933.06;;;15.70;73.43
21566;BME280;10943;48.738;9.320;2022-08-21T03:53:34;98931.81;;;15.40;74.44
21566;BME280;10943;48.738;9.320;2022-08-21T03:56:02;98932.75;;;15.13;74.44
21566;BME280;10943;48.738;9.320;2022-08-21T03:58:31;98940.31;;;15.13;74.75
21566;BME280;10943;48.738;9.320;2022-08-21T04:01:00;98948.41;;;15.62;73.47
21566;BME280;10943;48.738;9.320;2022-08-21T04:03:29;98936.16;;;15.74;72.48
21566;BME280;10943;48.738;9.320;2022-08-21T04:05:56;98932.72;;;15.56;72.54
21566;BME280;10943;48.738;9.320;2022-08-21T04:08:24;98933.19;;;15.38;73.32
21566;BME280;10943;48.738;9.320;2022-08-21T04:10:55;98932.59;;;15.30;73.83
21566;BME280;10943;48.738;9.320;2022-08-21T04:13:25;98930.97;;;15.45;73.64
21566;BME280;10943;48.738;9.320;2022-08-21T04:15:56;98943.66;;;15.68;72.76
21566;BME280;10943;48.738;9.320;2022-08-21T04:18:25;98939.19;;;15.67;72.38
21566;BME280;10943;48.738;9.320;2022-08-21T04:20:54;98944.94;;;15.45;72.97
21566;BME280;10943;48.738;9.320;2022-08-21T04:23:24;98944.75;;;15.62;72.74
21566;BME280;10943;48.738;9.320;2022-08-21T04:25:54;98944.94;;;15.45;72.96
21566;BME280;10943;48.738;9.320;2022-08-21T04:28:26;98950.97;;;15.21;73.88
21566;BME280;10943;48.738;9.320;2022-08-21T04:30:56;98948.56;;;15.40;73.97
21566;BME280;10943;48.738;9.320;2022-08-21T04:33:24;98960.88;;;15.44;73.65
21566;BME280;10943;48.738;9.320;2022-08-21T04:35:52;98962.69;;;15.71;72.47
21566;BME280;10943;48.738;9.320;2022-08-21T04:38:20;98964.47;;;15.93;71.42
21566;BME280;10943;48.738;9.320;2022-08-21T04:40:49;98967.09;;;15.62;71.89
21566;BME280;10943;48.738;9.320;2022-08-21T04:43:17;98962.69;;;15.66;71.74
21566;BME280;10943;48.738;9.320;2022-08-21T04:45:48;98973.41;;;15.84;72.10
21566;BME280;10943;48.738;9.320;2022-08-21T04:48:19;98970.94;;;15.98;70.97
21566;BME280;10943;48.738;9.320;2022-08-21T04:53:41;98979.34;;;15.98;71.02
21566;BME280;10943;48.738;9.320;2022-08-21T04:56:22;98976.28;;;15.52;73.81
21566;BME280;10943;48.738;9.320;2022-08-21T04:58:57;98979.31;;;15.93;73.08
21566;BME280;10943;48.738;9.320;2022-08-21T05:01:29;98981.44;;;15.76;73.02
21566;BME280;10943;48.738;9.320;2022-08-21T05:04:04;98979.38;;;16.09;72.41
21566;BME280;10943;48.738;9.320;2022-08-21T05:06:36;98978.34;;;16.51;71.50
21566;BME280;10943;48.738;9.320;2022-08-21T05:09:09;98977.81;;;16.64;70.42
21566;BME280;10943;48.738;9.320;2022-08-21T05:11:36;98975.53;;;17.49;69.90
21566;BME280;10943;48.738;9.320;2022-08-21T05:14:04;98976.34;;;18.75;67.25
21566;BME280;10943;48.738;9.320;2022-08-21T05:16:31;98986.47;;;20.37;60.15
21566;BME280;10943;48.738;9.320;2022-08-21T05:19:08;98987.59;;;21.13;56.56
21566;BME280;10943;48.738;9.320;2022-08-21T05:21:41;98983.03;;;21.64;55.76
21566;BME280;10943;48.738;9.320;2022-08-21T05:24:11;98993.38;;;22.38;52.31
21566;BME280;10943;48.738;9.320;2022-08-21T05:26:38;98989.84;;;23.28;49.25
21566;BME280;10943;48.738;9.320;2022-08-21T05:29:15;98998.25;;;24.05;46.41
21566;BME280;10943;48.738;9.320;2022-08-21T05:31:45;99004.41;;;24.65;45.24
21566;BME280;10943;48.738;9.320;2022-08-21T05:34:18;99006.94;;;25.93;43.73
21566;BME280;10943;48.738;9.320;2022-08-21T05:36:47;99010.31;;;26.84;40.38
21566;BME280;10943;48.738;9.320;2022-08-21T05:39:15;99008.50;;;27.34;39.84
21566;BME280;10943;48.738;9.320;2022-08-21T05:41:42;99005.19;;;27.66;38.99
21566;BME280;10943;48.738;9.320;2022-08-21T05:44:10;99007.31;;;27.57;39.38
21566;BME280;10943;48.738;9.320;2022-08-21T05:46:39;99009.09;;;28.20;37.74
21566;BME280;10943;48.738;9.320;2022-08-21T05:49:06;99016.34;;;28.67;36.05
21566;BME280;10943;48.738;9.320;2022-08-21T05:51:33;99013.94;;;29.50;35.92
21566;BME280;10943;48.738;9.320;2022-08-21T05:54:00;99014.00;;;30.46;34.60
21566;BME280;10943;48.738;9.320;2022-08-21T05:56:28;99018.78;;;31.09;32.70
21566;BME280;10943;48.738;9.320;2022-08-21T05:58:55;99011.09;;;31.33;32.34
21566;BME280;10943;48.738;9.320;2022-08-21T06:01:23;99011.47;;;31.51;32.39
21566;BME280;10943;48.738;9.320;2022-08-21T06:03:50;99015.84;;;32.31;30.05
21566;BME280;10943;48.738;9.320;2022-08-21T06:06:19;99015.59;;;32.93;30.09
21566;BME280;10943;48.738;9.320;2022-08-21T06:08:46;99025.03;;;32.94;29.34
21566;BME280;10943;48.738;9.320;2022-08-21T06:11:14;99015.94;;;32.15;30.22
21566;BME280;10943;48.738;9.320;2022-08-21T06:13:41;99013.19;;;32.99;30.10
21566;BME280;10943;48.738;9.320;2022-08-21T06:16:15;99021.56;;;34.17;28.34
21566;BME280;10943;48.738;9.320;2022-08-21T06:18:44;99018.22;;;34.56;28.53
21566;BME280;10943;48.738;9.320;2022-08-21T06:21:13;99019.47;;;35.25;26.81
21566;BME280;10943;48.738;9.320;2022-08-21T06:23:42;99028.72;;;35.78;26.83
21566;BME280;10943;48.738;9.320;2022-08-21T06:26:11;99023.88;;;36.69;24.96
21566;BME280;10943;48.738;9.320;2022-08-21T06:28:41;99019.19;;;37.36;24.70
21566;BME280;10943;48.738;9.320;2022-08-21T06:31:21;99022.88;;;37.51;23.99
21566;BME280;10943;48.738;9.320;2022-08-21T06:33:51;99021.88;;;37.83;23.02
21566;BME280;10943;48.738;9.320;2022-08-21T06:36:19;99015.09;;;38.08;22.90
21566;BME280;10943;48.738;9.320;2022-08-21T06:38:47;99022.22;;;38.52;21.99
21566;BME280;10943;48.738;9.320;2022-08-21T06:41:19;99007.66;;;37.25;22.81
21566;BME280;10943;48.738;9.320;2022-08-21T06:43:50;99012.78;;;36.34;24.37
21566;BME280;10943;48.738;9.320;2022-08-21T06:46:18;99017.63;;;35.80;25.20
21566;BME280;10943;48.738;9.320;2022-08-21T06:48:46;99014.00;;;36.19;24.25
21566;BME280;10943;48.738;9.320;2022-08-21T06:51:13;99013.97;;;36.59;23.46
21566;BME280;10943;48.738;9.320;2022-08-21T06:53:41;99008.22;;;36.48;23.85
21566;BME280;10943;48.738;9.320;2022-08-21T06:56:08;99013.03;;;37.23;23.45
21566;BME280;10943;48.738;9.320;2022-08-21T06:58:35;99013.47;;;38.07;22.32
21566;BME280;10943;48.738;9.320;2022-08-21T07:01:04;99009.44;;;38.46;21.84
21566;BME280;10943;48.738;9.320;2022-08-21T07:03:36;99013.75;;;38.69;21.46
21566;BME280;10943;48.738;9.320;2022-08-21T07:09:49;99012.97;;;40.03;19.90
21566;BME280;10943;48.738;9.320;2022-08-21T07:12:22;99011.69;;;40.31;19.26
21566;BME280;10943;48.738;9.320;2022-08-21T08:14:24;98970.38;;;45.82;14.27
21566;BME280;10943;48.738;9.320;2022-08-21T08:16:57;98962.97;;;46.40;13.53
21566;BME280;10943;48.738;9.320;2022-08-21T08:19:24;98961.06;;;46.84;13.08
21566;BME280;10943;48.738;9.320;2022-08-21T08:21:52;98963.50;;;45.67;14.46
21566;BME280;10943;48.738;9.320;2022-08-21T08:24:20;98954.38;;;45.42;13.81
21566;BME280;10943;48.738;9.320;2022-08-21T08:27:10;98963.84;;;47.15;12.86
21566;BME280;10943;48.738;9.320;2022-08-21T08:29:37;98947.47;;;48.61;12.03
21566;BME280;10943;48.738;9.320;2022-08-21T08:32:06;98940.19;;;48.71;11.09
21566;BME280;10943;48.738;9.320;2022-08-21T08:34:37;98938.38;;;48.89;11.17
21566;BME280;10943;48.738;9.320;2022-08-21T08:37:08;98942.19;;;49.04;11.65
21566;BME280;10943;48.738;9.320;2022-08-21T08:39:36;98925.88;;;49.03;11.65
21566;BME280;10943;48.738;9.320;2022-08-21T08:42:16;98928.63;;;49.37;11.45
21566;BME280;10943;48.738;9.320;2022-08-21T08:45:17;98918.22;;;48.57;11.25
21566;BME280;10943;48.738;9.320;2022-08-21T08:48:02;98916.59;;;48.56;11.32
21566;BME280;10943;48.738;9.320;2022-08-21T08:50:47;98920.69;;;47.06;12.43
21566;BME280;10943;48.738;9.320;2022-08-21T08:53:38;98914.97;;;48.31;12.14
21566;BME280;10943;48.738;9.320;2022-08-21T08:56:13;98912.47;;;49.47;11.34
21566;BME280;10943;48.738;9.320;2022-08-21T08:58:44;98907.72;;;50.00;11.35
21566;BME280;10943;48.738;9.320;2022-08-21T09:01:17;98911.28;;;50.25;10.83
21566;BME280;10943;48.738;9.320;2022-08-21T09:03:48;98906.53;;;50.48;10.86
21566;BME280;10943;48.738;9.320;2022-08-21T09:06:45;98920.25;;;51.19;10.17
21566;BME280;10943;48.738;9.320;2022-08-21T09:22:24;98893.50;;;51.60;9.31
21566;BME280;10943;48.738;9.320;2022-08-21T09:25:24;98889.22;;;51.99;9.37
21566;BME280;10943;48.738;9.320;2022-08-21T09:27:55;98885.38;;;52.96;9.04
21566;BME280;10943;48.738;9.320;2022-08-21T09:30:31;98881.59;;;52.24;8.74
21566;BME280;10943;48.738;9.320;2022-08-21T09:32:59;98876.66;;;51.34;9.06
21566;BME280;10943;48.738;9.320;2022-08-21T09:35:27;98870.31;;;49.71;10.21
21566;BME280;10943;48.738;9.320;2022-08-21T09:38:01;98864.00;;;48.34;11.29
21566;BME280;10943;48.738;9.320;2022-08-21T09:40:46;98864.13;;;49.54;10.73
21566;BME280;10943;48.738;9.320;2022-08-21T09:43:18;98861.78;;;49.58;10.51
21566;BME280;10943;48.738;9.320;2022-08-21T09:46:08;98867.66;;;49.73;10.51
21566;BME280;10943;48.738;9.320;2022-08-21T09:48:51;98858.81;;;47.71;11.52
21566;BME280;10943;48.738;9.320;2022-08-21T09:51:49;98847.16;;;48.11;11.40
21566;BME280;10943;48.738;9.320;2022-08-21T09:54:20;98852.47;;;49.15;10.49
21566;BME280;10943;48.738;9.320;2022-08-21T09:57:00;98853.31;;;49.81;10.30
21566;BME280;10943;48.738;9.320;2022-08-21T09:59:50;98850.13;;;50.41;9.85
21566;BME280;10943;48.738;9.320;2022-08-21T10:02:32;98859.53;;;51.76;8.45
21566;BME280;10943;48.738;9.320;2022-08-21T10:05:17;98853.44;;;51.91;8.46
21566;BME280;10943;48.738;9.320;2022-08-21T10:07:49;98846.97;;;52.42;8.58
21566;BME280;10943;48.738;9.320;2022-08-21T10:26:57;98822.44;;;51.38;8.20
21566;BME280;10943;48.738;9.320;2022-08-21T10:30:11;98819.44;;;51.70;8.72
21566;BME280;10943;48.738;9.320;2022-08-21T10:33:59;98822.97;;;53.17;7.84
21566;BME280;10943;48.738;9.320;2022-08-21T10:36:35;98817.81;;;53.80;7.60
21566;BME280;10943;48.738;9.320;2022-08-21T10:39:29;98823.22;;;53.36;7.64
21566;BME280;10943;48.738;9.320;2022-08-21T10:45:20;98811.66;;;53.55;7.27
21566;BME280;10943;48.738;9.320;2022-08-21T10:48:05;98809.19;;;52.86;7.00
21566;BME280;10943;48.738;9.320;2022-08-21T10:56:19;98796.19;;;52.43;7.43
21566;BME280;10943;48.738;9.320;2022-08-21T11:05:25;98779.88;;;46.78;10.76
21566;BME280;10943;48.738;9.320;2022-08-21T11:08:19;98780.19;;;48.54;9.81
21566;BME280;10943;48.738;9.320;2022-08-21T11:14:13;98774.06;;;51.29;8.51
21566;BME280;10943;48.738;9.320;2022-08-21T11:17:13;98780.41;;;51.54;8.56
21566;BME280;10943;48.738;9.320;2022-08-21T11:27:24;98779.19;;;51.72;7.97
21566;BME280;10943;48.738;9.320;2022-08-21T11:30:14;98764.19;;;50.07;8.64
21566;BME280;10943;48.738;9.320;2022-08-21T11:35:54;98763.63;;;48.27;9.97
21566;BME280;10943;48.738;9.320;2022-08-21T11:42:37;98753.28;;;47.92;9.76
21566;BME280;10943;48.738;9.320;2022-08-21T11:53:14;98736.09;;;48.15;10.35
21566;BME280;10943;48.738;9.320;2022-08-21T11:55:51;98740.47;;;47.56;10.32
21566;BME280;10943;48.738;9.320;2022-08-21T12:05:57;98734.28;;;46.59;10.55
21566;BME280;10943;48.738;9.320;2022-08-21T12:12:30;98735.16;;;47.94;10.36
21566;BME280;10943;48.738;9.320;2022-08-21T12:21:58;98734.19;;;48.12;10.05
21566;BME280;10943;48.738;9.320;2022-08-21T12:25:10;98719.53;;;48.86;9.65
21566;BME280;10943;48.738;9.320;2022-08-21T12:27:53;98729.41;;;49.49;8.81
21566;BME280;10943;48.738;9.320;2022-08-21T12:30:34;98715.84;;;47.78;9.52
21566;BME280;10943;48.738;9.320;2022-08-21T12:33:20;98708.72;;;47.12;10.06
21566;BME280;10943;48.738;9.320;2022-08-21T12:36:02;98699.81;;;45.61;10.89
21566;BME280;10943;48.738;9.320;2022-08-21T12:38:48;98698.53;;;45.80;10.78
21566;BME280;10943;48.738;9.320;2022-08-21T12:41:48;98696.47;;;46.80;10.74
21566;BME280;10943;48.738;9.320;2022-08-21T12:44:54;98690.78;;;47.43;10.21
21566;BME280;10943;48.738;9.320;2022-08-21T12:47:45;98681.53;;;45.47;10.86
21566;BME280;10943;48.738;9.320;2022-08-21T12:50:38;98688.41;;;46.19;10.97
21566;BME280;10943;48.738;9.320;2022-08-21T12:53:42;98690.66;;;45.40;11.62
21566;BME280;10943;48.738;9.320;2022-08-21T12:56:19;98682.22;;;45.52;11.34
21566;BME280;10943;48.738;9.320;2022-08-21T12:59:02;98673.91;;;44.91;11.54
21566;BME280;10943;48.738;9.320;2022-08-21T13:01:45;98660.00;;;43.27;11.54
21566;BME280;10943;48.738;9.320;2022-08-21T13:04:26;98669.28;;;43.47;11.96
21566;BME280;10943;48.738;9.320;2022-08-21T13:07:09;98663.06;;;43.58;11.57
21566;BME280;10943;48.738;9.320;2022-08-21T13:09:49;98664.88;;;43.43;11.15
21566;BME280;10943;48.738;9.320;2022-08-21T13:12:23;98670.13;;;42.45;11.95
21566;BME280;10943;48.738;9.320;2022-08-21T13:15:04;98664.13;;;42.22;11.93
21566;BME280;10943;48.738;9.320;2022-08-21T13:17:41;98672.19;;;41.72;12.14
21566;BME280;10943;48.738;9.320;2022-08-21T13:20:23;98661.00;;;41.08;12.34
21566;BME280;10943;48.738;9.320;2022-08-21T13:22:53;98666.22;;;39.64;13.02
21566;BME280;10943;48.738;9.320;2022-08-21T13:25:28;98657.78;;;39.93;12.65
21566;BME280;10943;48.738;9.320;2022-08-21T13:28:09;98658.03;;;39.11;12.69
21566;BME280;10943;48.738;9.320;2022-08-21T13:30:52;98657.00;;;39.69;13.29
21566;BME280;10943;48.738;9.320;2022-08-21T13:33:25;98653.84;;;38.61;12.98
21566;BME280;10943;48.738;9.320;2022-08-21T13:36:11;98648.53;;;38.56;13.56
21566;BME280;10943;48.738;9.320;2022-08-21T13:38:44;98656.00;;;38.22;14.80
21566;BME280;10943;48.738;9.320;2022-08-21T13:41:34;98641.81;;;38.62;14.37
21566;BME280;10943;48.738;9.320;2022-08-21T13:44:17;98645.81;;;38.45;14.32
21566;BME280;10943;48.738;9.320;2022-08-21T13:46:49;98649.22;;;38.36;14.52
21566;BME280;10943;48.738;9.320;2022-08-21T13:49:25;98642.66;;;38.01;14.89
21566;BME280;10943;48.738;9.320;2022-08-21T13:51:56;98648.97;;;37.92;13.95
21566;BME280;10943;48.738;9.320;2022-08-21T13:54:37;98643.16;;;37.92;15.35
21566;BME280;10943;48.738;9.320;2022-08-21T13:57:28;98643.81;;;38.07;14.67
21566;BME280;10943;48.738;9.320;2022-08-21T14:00:25;98637.03;;;38.21;14.18
21566;BME280;10943;48.738;9.320;2022-08-21T14:03:04;98635.75;;;37.91;14.83
21566;BME280;10943;48.738;9.320;2022-08-21T14:05:38;98630.22;;;37.70;15.33
21566;BME280;10943;48.738;9.320;2022-08-21T14:08:39;98627.97;;;37.46;15.20
21566;BME280;10943;48.738;9.320;2022-08-21T14:11:13;98638.88;;;36.86;15.90
21566;BME280;10943;48.738;9.320;2022-08-21T14:13:58;98642.72;;;35.76;15.66
21566;BME280;10943;48.738;9.320;2022-08-21T14:17:01;98643.94;;;35.79;16.25
21566;BME280;10943;48.738;9.320;2022-08-21T14:19:51;98632.09;;;35.26;16.88
21566;BME280;10943;48.738;9.320;2022-08-21T14:22:44;98634.13;;;34.57;17.22
21566;BME280;10943;48.738;9.320;2022-08-21T14:28:18;98629.06;;;34.11;17.69
21566;BME280;10943;48.738;9.320;2022-08-21T14:31:14;98632.47;;;34.56;17.83
21566;BME280;10943;48.738;9.320;2022-08-21T14:33:47;98628.38;;;34.57;17.88
21566;BME280;10943;48.738;9.320;2022-08-21T14:36:15;98626.72;;;34.56;17.83
21566;BME280;10943;48.738;9.320;2022-08-21T14:38:42;98633.75;;;34.69;17.85
21566;BME280;10943;48.738;9.320;2022-08-21T14:41:21;98627.19;;;34.94;17.96
21566;BME280;10943;48.738;9.320;2022-08-21T14:43:53;98624.28;;;34.80;17.82
21566;BME280;10943;48.738;9.320;2022-08-21T14:46:35;98617.69;;;34.79;17.93
21566;BME280;10943;48.738;9.320;2022-08-21T14:49:17;98614.00;;;35.00;17.91
21566;BME280;10943;48.738;9.320;2022-08-21T14:51:48;98614.03;;;34.90;18.33
21566;BME280;10943;48.738;9.320;2022-08-21T14:54:20;98610.69;;;34.73;17.96
21566;BME280;10943;48.738;9.320;2022-08-21T14:57:09;98611.97;;;34.97;17.64
21566;BME280;10943;48.738;9.320;2022-08-21T14:59:43;98603.34;;;34.86;18.53
21566;BME280;10943;48.738;9.320;2022-08-21T15:02:11;98602.91;;;35.02;18.14
21566;BME280;10943;48.738;9.320;2022-08-21T15:04:38;98599.59;;;34.61;17.80
21566;BME280;10943;48.738;9.320;2022-08-21T15:07:06;98598.16;;;33.86;17.93
21566;BME280;10943;48.738;9.320;2022-08-21T15:09:33;98603.53;;;33.21;18.77
21566;BME280;10943;48.738;9.320;2022-08-21T15:12:02;98595.28;;;33.09;19.44
21566;BME280;10943;48.738;9.320;2022-08-21T15:14:36;98596.75;;;32.91;19.52
21566;BME280;10943;48.738;9.320;2022-08-21T15:17:09;98596.41;;;32.52;19.92
21566;BME280;10943;48.738;9.320;2022-08-21T15:19:38;98585.97;;;33.30;19.50
21566;BME280;10943;48.738;9.320;2022-08-21T15:22:06;98591.84;;;33.48;18.91
21566;BME280;10943;48.738;9.320;2022-08-21T15:24:45;98591.75;;;33.37;19.10
21566;BME280;10943;48.738;9.320;2022-08-21T15:27:16;98588.97;;;33.48;18.04
21566;BME280;10943;48.738;9.320;2022-08-21T15:29:44;98585.78;;;33.01;18.57
21566;BME280;10943;48.738;9.320;2022-08-21T15:32:23;98583.41;;;32.65;18.95
21566;BME280;10943;48.738;9.320;2022-08-21T15:34:52;98581.50;;;32.77;18.98
21566;BME280;10943;48.738;9.320;2022-08-21T15:37:21;98586.56;;;32.98;18.79
21566;BME280;10943;48.738;9.320;2022-08-21T15:39:51;98581.59;;;32.91;19.38
21566;BME280;10943;48.738;9.320;2022-08-21T15:42:21;98579.41;;;33.33;19.11
21566;BME280;10943;48.738;9.320;2022-08-21T15:44:49;98575.31;;;33.34;18.76
21566;BME280;10943;48.738;9.320;2022-08-21T15:47:25;98582.41;;;32.88;19.06
21566;BME280;10943;48.738;9.320;2022-08-21T15:49:56;98571.53;;;32.63;19.21
21566;BME280;10943;48.738;9.320;2022-08-21T15:52:24;98570.09;;;32.91;19.03
21566;BME280;10943;48.738;9.320;2022-08-21T15:54:52;98575.50;;;33.00;19.41
21566;BME280;10943;48.738;9.320;2022-08-21T15:57:25;98559.03;;;32.89;19.45
21566;BME280;10943;48.738;9.320;2022-08-21T16:00:00;98559.66;;;33.24;18.97
21566;BME280;10943;48.738;9.320;2022-08-21T16:02:43;98557.53;;;33.10;19.92
21566;BME280;10943;48.738;9.320;2022-08-21T16:05:14;98557.59;;;33.21;19.28
21566;BME280;10943;48.738;9.320;2022-08-21T16:07:47;98559.72;;;33.31;19.12
21566;BME280;10943;48.738;9.320;2022-08-21T16:10:21;98566.22;;;33.24;19.52
21566;BME280;10943;48.738;9.320;2022-08-21T16:13:03;98561.28;;;33.25;19.62
21566;BME280;10943;48.738;9.320;2022-08-21T16:15:32;98559.75;;;33.35;20.01